sensor_id;sensor_type;location;lat;lon;timestamp;pressure;altitude;pressure_sealevel;temperature;humidity
65376;BME280;51976;47.332;9.404;2023-02-02T00:00:48;93625.09;;;18.94;32.27
65376;BME280;51976;47.332;9.404;2023-02-02T00:03:13;93624.91;;;18.91;32.08
65376;BME280;51976;47.332;9.404;2023-02-02T00:05:45;93628.75;;;18.90;32.25
65376;BME280;51976;47.332;9.404;2023-02-02T00:08:10;93613.69;;;18.92;31.97
65376;BME280;51976;47.332;9.404;2023-02-02T00:10:36;93618.03;;;18.93;31.79
65376;BME280;51976;47.332;9.404;2023-02-02T00:13:01;93620.25;;;18.91;31.95
65376;BME280;51976;47.332;9.404;2023-02-02T00:15:26;93623.78;;;18.92;31.91
65376;BME280;51976;47.332;9.404;2023-02-02T00:17:52;93630.69;;;18.89;32.19
65376;BME280;51976;47.332;9.404;2023-02-02T00:20:17;93626.34;;;18.88;32.09
65376;BME280;51976;47.332;9.404;2023-02-02T00:22:42;93640.50;;;18.90;31.94
65376;BME280;51976;47.332;9.404;2023-02-02T00:25:08;93630.19;;;18.87;32.14
65376;BME280;51976;47.332;9.404;2023-02-02T00:27:34;93629.44;;;18.87;32.10
65376;BME280;51976;47.332;9.404;2023-02-02T00:29:59;93628.63;;;18.86;32.37
65376;BME280;51976;47.332;9.404;2023-02-02T00:32:24;93624.41;;;18.89;32.03
65376;BME280;51976;47.332;9.404;2023-02-02T00:34:50;93636.47;;;18.88;32.20
65376;BME280;51976;47.332;9.404;2023-02-02T00:37:15;93651.28;;;18.87;31.93
65376;BME280;51976;47.332;9.404;2023-02-02T00:39:41;93653.34;;;18.90;32.03
65376;BME280;51976;47.332;9.404;2023-02-02T00:42:10;93649.81;;;18.89;32.14
65376;BME280;51976;47.332;9.404;2023-02-02T00:44:35;93643.41;;;18.85;32.15
65376;BME280;51976;47.332;9.404;2023-02-02T00:47:20;93633.28;;;18.86;31.95
65376;BME280;51976;47.332;9.404;2023-02-02T00:49:46;93623.16;;;18.86;32.04
65376;BME280;51976;47.332;9.404;2023-02-02T00:52:12;93621.53;;;18.85;32.08
65376;BME280;51976;47.332;9.404;2023-02-02T00:54:38;93629.88;;;18.89;32.18
65376;BME280;51976;47.332;9.404;2023-02-02T00:57:03;93625.22;;;18.89;32.06
65376;BME280;51976;47.332;9.404;2023-02-02T00:59:28;93624.41;;;18.89;32.07
65376;BME280;51976;47.332;9.404;2023-02-02T01:01:54;93628.28;;;18.88;32.17
65376;BME280;51976;47.332;9.404;2023-02-02T01:04:19;93623.47;;;18.85;32.19
65376;BME280;51976;47.332;9.404;2023-02-02T01:06:45;93626.69;;;18.87;31.91
65376;BME280;51976;47.332;9.404;2023-02-02T01:09:10;93636.00;;;18.86;32.00
65376;BME280;51976;47.332;9.404;2023-02-02T01:11:36;93641.47;;;18.86;31.96
65376;BME280;51976;47.332;9.404;2023-02-02T01:14:01;93629.72;;;18.85;32.15
65376;BME280;51976;47.332;9.404;2023-02-02T01:16:27;93634.09;;;18.86;31.95
65376;BME280;51976;47.332;9.404;2023-02-02T01:18:52;93630.69;;;18.81;31.97
65376;BME280;51976;47.332;9.404;2023-02-02T01:21:18;93642.59;;;18.85;31.90
65376;BME280;51976;47.332;9.404;2023-02-02T01:23:44;93644.81;;;18.83;32.00
65376;BME280;51976;47.332;9.404;2023-02-02T01:26:10;93651.09;;;18.83;32.10
65376;BME280;51976;47.332;9.404;2023-02-02T01:28:36;93645.63;;;18.83;32.10
65376;BME280;51976;47.332;9.404;2023-02-02T01:31:11;93647.88;;;18.81;31.92
65376;BME280;51976;47.332;9.404;2023-02-02T01:33:36;93645.94;;;18.82;31.88
65376;BME280;51976;47.332;9.404;2023-02-02T01:36:05;93643.72;;;18.84;32.10
65376;BME280;51976;47.332;9.404;2023-02-02T01:38:30;93648.69;;;18.82;31.98
65376;BME280;51976;47.332;9.404;2023-02-02T01:40:56;93651.91;;;18.84;32.19
65376;BME280;51976;47.332;9.404;2023-02-02T01:43:48;93647.56;;;18.83;32.11
65376;BME280;51976;47.332;9.404;2023-02-02T01:46:17;93628.44;;;18.83;32.12
65376;BME280;51976;47.332;9.404;2023-02-02T01:48:47;93642.59;;;18.85;32.07
65376;BME280;51976;47.332;9.404;2023-02-02T01:51:18;93629.25;;;18.83;32.16
65376;BME280;51976;47.332;9.404;2023-02-02T01:53:45;93645.13;;;18.81;31.93
65376;BME280;51976;47.332;9.404;2023-02-02T01:56:16;93644.03;;;18.82;32.14
65376;BME280;51976;47.332;9.404;2023-02-02T01:58:44;93644.03;;;18.82;31.98
65376;BME280;51976;47.332;9.404;2023-02-02T02:01:10;93627.63;;;18.82;31.83
65376;BME280;51976;47.332;9.404;2023-02-02T02:03:36;93640.78;;;18.80;32.10
65376;BME280;51976;47.332;9.404;2023-02-02T02:06:08;93647.06;;;18.81;32.01
65376;BME280;51976;47.332;9.404;2023-02-02T02:08:39;93638.56;;;18.82;32.04
65376;BME280;51976;47.332;9.404;2023-02-02T02:11:05;93632.91;;;18.79;32.01
65376;BME280;51976;47.332;9.404;2023-02-02T02:13:33;93636.44;;;18.79;32.11
65376;BME280;51976;47.332;9.404;2023-02-02T02:16:36;93643.22;;;18.82;32.01
65376;BME280;51976;47.332;9.404;2023-02-02T02:19:54;93634.53;;;18.80;32.03
65376;BME280;51976;47.332;9.404;2023-02-02T02:26:37;93636.13;;;18.81;31.64
65376;BME280;51976;47.332;9.404;2023-02-02T02:32:36;93632.09;;;18.78;31.94
65376;BME280;51976;47.332;9.404;2023-02-02T02:35:42;93630.97;;;18.79;31.86
65376;BME280;51976;47.332;9.404;2023-02-02T02:38:32;93635.16;;;18.77;31.97
65376;BME280;51976;47.332;9.404;2023-02-02T02:41:02;93621.19;;;18.78;31.90
65376;BME280;51976;47.332;9.404;2023-02-02T02:43:38;93630.19;;;18.79;32.07
65376;BME280;51976;47.332;9.404;2023-02-02T02:46:04;93621.19;;;18.78;31.94
65376;BME280;51976;47.332;9.404;2023-02-02T02:48:31;93631.59;;;18.76;32.06
65376;BME280;51976;47.332;9.404;2023-02-02T02:51:56;93616.53;;;18.79;31.94
65376;BME280;51976;47.332;9.404;2023-02-02T02:54:02;93614.59;;;18.79;32.00
65376;BME280;51976;47.332;9.404;2023-02-02T02:56:33;93615.22;;;18.76;31.92
65376;BME280;51976;47.332;9.404;2023-02-02T02:59:25;93595.59;;;18.74;31.92
65376;BME280;51976;47.332;9.404;2023-02-02T03:02:03;93592.06;;;18.74;32.15
65376;BME280;51976;47.332;9.404;2023-02-02T03:04:42;93583.56;;;18.75;32.01
65376;BME280;51976;47.332;9.404;2023-02-02T03:07:19;93582.13;;;18.78;32.04
65376;BME280;51976;47.332;9.404;2023-02-02T03:09:47;93580.03;;;18.75;31.76
65376;BME280;51976;47.332;9.404;2023-02-02T03:12:15;93576.66;;;18.78;32.06
65376;BME280;51976;47.332;9.404;2023-02-02T03:14:41;93569.09;;;18.75;32.05
65376;BME280;51976;47.332;9.404;2023-02-02T03:17:07;93561.41;;;18.77;32.02
65376;BME280;51976;47.332;9.404;2023-02-02T03:19:32;93550.78;;;18.75;32.16
65376;BME280;51976;47.332;9.404;2023-02-02T03:21:57;93562.50;;;18.76;32.13
65376;BME280;51976;47.332;9.404;2023-02-02T03:24:23;93568.78;;;18.76;32.02
65376;BME280;51976;47.332;9.404;2023-02-02T03:26:48;93568.47;;;18.78;32.02
65376;BME280;51976;47.332;9.404;2023-02-02T03:29:14;93564.44;;;18.75;31.94
65376;BME280;51976;47.332;9.404;2023-02-02T03:31:39;93553.19;;;18.77;32.04
65376;BME280;51976;47.332;9.404;2023-02-02T03:34:04;93564.75;;;18.74;31.67
65376;BME280;51976;47.332;9.404;2023-02-02T03:36:30;93575.69;;;18.74;32.09
65376;BME280;51976;47.332;9.404;2023-02-02T03:38:55;93583.38;;;18.72;31.74
65376;BME280;51976;47.332;9.404;2023-02-02T03:41:21;93585.97;;;18.77;31.92
65376;BME280;51976;47.332;9.404;2023-02-02T03:43:46;93598.84;;;18.76;31.99
65376;BME280;51976;47.332;9.404;2023-02-02T03:46:11;93595.59;;;18.74;31.91
65376;BME280;51976;47.332;9.404;2023-02-02T03:48:38;93602.38;;;18.77;31.80
65376;BME280;51976;47.332;9.404;2023-02-02T03:51:09;93595.28;;;18.76;32.04
65376;BME280;51976;47.332;9.404;2023-02-02T03:53:35;93604.59;;;18.75;32.11
65376;BME280;51976;47.332;9.404;2023-02-02T03:56:01;93607.84;;;18.77;32.02
65376;BME280;51976;47.332;9.404;2023-02-02T03:58:26;93611.19;;;18.74;32.05
65376;BME280;51976;47.332;9.404;2023-02-02T04:00:52;93614.22;;;18.72;32.07
65376;BME280;51976;47.332;9.404;2023-02-02T04:03:19;93607.97;;;18.72;31.81
65376;BME280;51976;47.332;9.404;2023-02-02T04:05:48;93626.47;;;18.75;31.85
65376;BME280;51976;47.332;9.404;2023-02-02T04:08:13;93617.47;;;18.74;32.01
65376;BME280;51976;47.332;9.404;2023-02-02T04:10:39;93629.31;;;18.70;32.04
65376;BME280;51976;47.332;9.404;2023-02-02T04:13:06;93629.81;;;18.72;32.03
65376;BME280;51976;47.332;9.404;2023-02-02T04:15:32;93630.31;;;18.74;32.27
65376;BME280;51976;47.332;9.404;2023-02-02T04:17:57;93640.13;;;18.75;31.89
65376;BME280;51976;47.332;9.404;2023-02-02T04:20:22;93643.16;;;18.73;32.18
65376;BME280;51976;47.332;9.404;2023-02-02T04:22:48;93639.63;;;18.73;31.92
65376;BME280;51976;47.332;9.404;2023-02-02T04:25:13;93642.34;;;18.73;32.12
65376;BME280;51976;47.332;9.404;2023-02-02T04:27:38;93639.44;;;18.69;32.13
65376;BME280;51976;47.332;9.404;2023-02-02T04:30:04;93655.50;;;18.71;32.06
65376;BME280;51976;47.332;9.404;2023-02-02T04:32:30;93654.09;;;18.73;32.14
65376;BME280;51976;47.332;9.404;2023-02-02T04:34:55;93648.94;;;18.72;32.07
65376;BME280;51976;47.332;9.404;2023-02-02T04:37:20;93642.03;;;18.74;31.83
65376;BME280;51976;47.332;9.404;2023-02-02T04:39:47;93652.47;;;18.72;32.17
65376;BME280;51976;47.332;9.404;2023-02-02T04:42:13;93648.44;;;18.70;31.90
65376;BME280;51976;47.332;9.404;2023-02-02T04:44:38;93642.97;;;18.70;32.10
65376;BME280;51976;47.332;9.404;2023-02-02T04:47:04;93647.31;;;18.71;32.14
65376;BME280;51976;47.332;9.404;2023-02-02T04:49:29;93642.97;;;18.70;31.93
65376;BME280;51976;47.332;9.404;2023-02-02T04:51:55;93656.00;;;18.73;31.92
65376;BME280;51976;47.332;9.404;2023-02-02T04:54:20;93648.94;;;18.72;31.79
65376;BME280;51976;47.332;9.404;2023-02-02T04:56:45;93659.84;;;18.72;31.98
65376;BME280;51976;47.332;9.404;2023-02-02T04:59:11;93651.34;;;18.73;32.12
65376;BME280;51976;47.332;9.404;2023-02-02T05:01:36;93660.66;;;18.72;32.09
65376;BME280;51976;47.332;9.404;2023-02-02T05:04:02;93645.09;;;18.73;31.92
65376;BME280;51976;47.332;9.404;2023-02-02T05:06:27;93662.91;;;18.70;32.20
65376;BME280;51976;47.332;9.404;2023-02-02T05:08:53;93655.50;;;18.71;32.17
65376;BME280;51976;47.332;9.404;2023-02-02T05:11:20;93657.75;;;18.69;32.16
65376;BME280;51976;47.332;9.404;2023-02-02T05:13:48;93654.22;;;18.68;31.91
65376;BME280;51976;47.332;9.404;2023-02-02T05:16:14;93660.16;;;18.70;32.18
65376;BME280;51976;47.332;9.404;2023-02-02T05:18:40;93655.00;;;18.69;32.13
65376;BME280;51976;47.332;9.404;2023-02-02T05:21:06;93654.53;;;18.67;31.91
65376;BME280;51976;47.332;9.404;2023-02-02T05:23:32;93653.22;;;18.64;31.95
65376;BME280;51976;47.332;9.404;2023-02-02T05:25:57;93641.97;;;18.66;32.14
65376;BME280;51976;47.332;9.404;2023-02-02T05:28:23;93646.81;;;18.69;32.13
65376;BME280;51976;47.332;9.404;2023-02-02T05:30:49;93645.09;;;18.73;32.11
65376;BME280;51976;47.332;9.404;2023-02-02T05:33:15;93645.22;;;18.68;32.25
65376;BME280;51976;47.332;9.404;2023-02-02T05:35:44;93637.00;;;18.68;32.17
65376;BME280;51976;47.332;9.404;2023-02-02T05:38:10;93655.00;;;18.69;32.01
65376;BME280;51976;47.332;9.404;2023-02-02T05:40:35;93641.03;;;18.70;32.03
65376;BME280;51976;47.332;9.404;2023-02-02T05:43:01;93644.09;;;18.69;32.01
65376;BME280;51976;47.332;9.404;2023-02-02T05:45:26;93665.94;;;18.69;32.01
65376;BME280;51976;47.332;9.404;2023-02-02T05:47:54;93649.56;;;18.69;32.24
65376;BME280;51976;47.332;9.404;2023-02-02T05:50:20;93639.75;;;18.68;31.93
65376;BME280;51976;47.332;9.404;2023-02-02T05:52:46;93634.28;;;18.68;32.16
65376;BME280;51976;47.332;9.404;2023-02-02T05:55:12;93641.03;;;18.70;32.03
65376;BME280;51976;47.332;9.404;2023-02-02T05:57:37;93629.63;;;18.68;32.09
65376;BME280;51976;47.332;9.404;2023-02-02T06:00:04;93629.63;;;18.68;31.97
65376;BME280;51976;47.332;9.404;2023-02-02T06:02:29;93622.06;;;18.65;32.08
65376;BME280;51976;47.332;9.404;2023-02-02T06:04:54;93620.63;;;18.68;31.87
65376;BME280;51976;47.332;9.404;2023-02-02T06:07:20;93629.31;;;18.70;32.18
65376;BME280;51976;47.332;9.404;2023-02-02T06:09:45;93630.31;;;18.74;31.90
65376;BME280;51976;47.332;9.404;2023-02-02T06:12:11;93625.53;;;18.79;32.02
65376;BME280;51976;47.332;9.404;2023-02-02T06:14:36;93639.84;;;18.85;31.86
65376;BME280;51976;47.332;9.404;2023-02-02T06:17:02;93647.41;;;18.88;31.71
65376;BME280;51976;47.332;9.404;2023-02-02T06:19:27;93641.00;;;18.92;31.71
65376;BME280;51976;47.332;9.404;2023-02-02T06:21:52;93638.56;;;18.91;31.66
65376;BME280;51976;47.332;9.404;2023-02-02T06:24:18;93641.81;;;18.93;31.86
65376;BME280;51976;47.332;9.404;2023-02-02T06:26:43;93639.56;;;18.95;31.98
65376;BME280;51976;47.332;9.404;2023-02-02T06:29:12;93649.06;;;18.98;31.57
65376;BME280;51976;47.332;9.404;2023-02-02T06:31:38;93641.66;;;18.98;31.63
65376;BME280;51976;47.332;9.404;2023-02-02T06:34:03;93642.97;;;19.01;31.81
65376;BME280;51976;47.332;9.404;2023-02-02T06:36:28;93645.38;;;19.02;31.90
65376;BME280;51976;47.332;9.404;2023-02-02T06:38:56;93653.44;;;19.07;31.53
65376;BME280;51976;47.332;9.404;2023-02-02T06:41:22;93656.00;;;19.04;31.81
65376;BME280;51976;47.332;9.404;2023-02-02T06:43:48;93660.03;;;19.06;31.78
65376;BME280;51976;47.332;9.404;2023-02-02T06:46:15;93670.97;;;19.06;31.62
65376;BME280;51976;47.332;9.404;2023-02-02T06:48:40;93660.22;;;19.10;31.60
65376;BME280;51976;47.332;9.404;2023-02-02T06:51:06;93660.53;;;19.08;31.65
65376;BME280;51976;47.332;9.404;2023-02-02T06:53:33;93667.28;;;19.11;31.80
65376;BME280;51976;47.332;9.404;2023-02-02T06:56:00;93673.25;;;19.13;31.56
65376;BME280;51976;47.332;9.404;2023-02-02T06:58:27;93673.72;;;19.15;31.83
65376;BME280;51976;47.332;9.404;2023-02-02T07:00:53;93672.94;;;19.14;31.78
65376;BME280;51976;47.332;9.404;2023-02-02T07:03:19;93678.41;;;19.14;31.68
65376;BME280;51976;47.332;9.404;2023-02-02T07:05:48;93675.34;;;19.16;31.67
65376;BME280;51976;47.332;9.404;2023-02-02T07:08:14;93679.38;;;19.18;31.74
65376;BME280;51976;47.332;9.404;2023-02-02T07:10:40;93687.56;;;19.18;31.67
65376;BME280;51976;47.332;9.404;2023-02-02T07:13:07;93679.38;;;19.18;31.60
65376;BME280;51976;47.332;9.404;2023-02-02T07:15:33;93682.09;;;19.18;31.65
65376;BME280;51976;47.332;9.404;2023-02-02T07:17:59;93684.22;;;19.21;31.93
65376;BME280;51976;47.332;9.404;2023-02-02T07:20:25;93674.09;;;19.22;31.73
65376;BME280;51976;47.332;9.404;2023-02-02T07:22:50;93684.22;;;19.21;31.76
65376;BME280;51976;47.332;9.404;2023-02-02T07:25:15;93689.03;;;19.24;31.45
65376;BME280;51976;47.332;9.404;2023-02-02T07:27:41;93682.78;;;19.24;32.04
65376;BME280;51976;47.332;9.404;2023-02-02T07:30:07;93679.72;;;19.25;31.59
65376;BME280;51976;47.332;9.404;2023-02-02T07:32:32;93684.25;;;19.30;31.56
65376;BME280;51976;47.332;9.404;2023-02-02T07:34:58;93701.16;;;19.32;31.62
65376;BME280;51976;47.332;9.404;2023-02-02T07:37:23;93695.38;;;19.34;31.54
65376;BME280;51976;47.332;9.404;2023-02-02T07:39:49;93693.44;;;19.34;31.36
65376;BME280;51976;47.332;9.404;2023-02-02T07:42:14;93681.69;;;19.34;31.43
65376;BME280;51976;47.332;9.404;2023-02-02T07:44:39;93688.28;;;19.33;31.67
65376;BME280;51976;47.332;9.404;2023-02-02T07:47:05;93686.66;;;19.32;31.70
65376;BME280;51976;47.332;9.404;2023-02-02T07:49:30;93688.28;;;19.33;31.85
65376;BME280;51976;47.332;9.404;2023-02-02T07:51:56;93692.31;;;19.35;31.89
65376;BME280;51976;47.332;9.404;2023-02-02T07:54:22;93698.59;;;19.36;31.61
65376;BME280;51976;47.332;9.404;2023-02-02T07:56:47;93697.78;;;19.35;31.87
65376;BME280;51976;47.332;9.404;2023-02-02T07:59:13;93708.22;;;19.33;31.93
65376;BME280;51976;47.332;9.404;2023-02-02T08:01:38;93706.47;;;19.37;31.73
65376;BME280;51976;47.332;9.404;2023-02-02T08:04:04;93708.72;;;19.35;31.82
65376;BME280;51976;47.332;9.404;2023-02-02T08:06:32;93705.66;;;19.37;31.94
65376;BME280;51976;47.332;9.404;2023-02-02T08:08:59;93697.78;;;19.35;31.55
65376;BME280;51976;47.332;9.404;2023-02-02T08:11:25;93704.38;;;19.34;32.00
65376;BME280;51976;47.332;9.404;2023-02-02T08:13:54;93707.59;;;19.36;31.96
65376;BME280;51976;47.332;9.404;2023-02-02T08:16:20;93706.00;;;19.35;32.01
65376;BME280;51976;47.332;9.404;2023-02-02T08:18:46;93710.81;;;19.38;31.68
65376;BME280;51976;47.332;9.404;2023-02-02T08:21:12;93708.09;;;19.38;31.95
65376;BME280;51976;47.332;9.404;2023-02-02T08:23:38;93703.44;;;19.39;31.99
65376;BME280;51976;47.332;9.404;2023-02-02T08:26:13;93697.97;;;19.39;32.12
65376;BME280;51976;47.332;9.404;2023-02-02T08:28:41;93707.28;;;19.38;31.93
65376;BME280;51976;47.332;9.404;2023-02-02T08:31:10;93713.25;;;19.40;31.88
65376;BME280;51976;47.332;9.404;2023-02-02T08:33:36;93716.47;;;19.42;32.15
65376;BME280;51976;47.332;9.404;2023-02-02T08:36:02;93718.88;;;19.43;32.29
65376;BME280;51976;47.332;9.404;2023-02-02T08:38:28;93726.59;;;19.41;32.10
65376;BME280;51976;47.332;9.404;2023-02-02T08:40:54;93715.81;;;19.45;31.92
65376;BME280;51976;47.332;9.404;2023-02-02T08:43:19;93716.78;;;19.40;32.11
65376;BME280;51976;47.332;9.404;2023-02-02T08:45:45;93724.19;;;19.40;31.97
65376;BME280;51976;47.332;9.404;2023-02-02T08:48:12;93733.50;;;19.39;32.08
65376;BME280;51976;47.332;9.404;2023-02-02T08:50:38;93717.06;;;19.30;32.43
65376;BME280;51976;47.332;9.404;2023-02-02T08:53:03;93748.31;;;19.46;31.82
65376;BME280;51976;47.332;9.404;2023-02-02T08:55:29;93736.88;;;19.44;32.16
65376;BME280;51976;47.332;9.404;2023-02-02T08:57:55;93735.44;;;19.47;32.28
65376;BME280;51976;47.332;9.404;2023-02-02T09:00:20;93751.22;;;19.50;32.50
65376;BME280;51976;47.332;9.404;2023-02-02T09:02:49;93758.13;;;19.47;32.51
65376;BME280;51976;47.332;9.404;2023-02-02T09:05:14;93751.06;;;19.46;32.63
65376;BME280;51976;47.332;9.404;2023-02-02T09:07:40;93757.31;;;19.47;32.57
65376;BME280;51976;47.332;9.404;2023-02-02T09:10:05;93760.84;;;19.39;32.16
65376;BME280;51976;47.332;9.404;2023-02-02T09:12:31;93764.72;;;19.46;33.37
65376;BME280;51976;47.332;9.404;2023-02-02T09:14:56;93772.50;;;19.53;33.20
65376;BME280;51976;47.332;9.404;2023-02-02T09:17:21;93772.69;;;19.56;33.09
65376;BME280;51976;47.332;9.404;2023-02-02T09:19:48;93769.66;;;19.58;32.78
65376;BME280;51976;47.332;9.404;2023-02-02T09:22:13;93778.97;;;19.57;32.84
65376;BME280;51976;47.332;9.404;2023-02-02T09:24:39;93776.53;;;19.55;33.07
65376;BME280;51976;47.332;9.404;2023-02-02T09:27:04;93775.91;;;19.58;32.85
65376;BME280;51976;47.332;9.404;2023-02-02T09:29:29;93773.69;;;19.60;32.85
65376;BME280;51976;47.332;9.404;2023-02-02T09:31:55;93771.25;;;19.59;32.80
65376;BME280;51976;47.332;9.404;2023-02-02T09:34:20;93772.38;;;19.58;32.76
65376;BME280;51976;47.332;9.404;2023-02-02T09:36:48;93766.09;;;19.57;32.77
65376;BME280;51976;47.332;9.404;2023-02-02T09:39:14;93761.94;;;19.60;32.72
65376;BME280;51976;47.332;9.404;2023-02-02T09:42:01;93757.41;;;19.55;32.63
65376;BME280;51976;47.332;9.404;2023-02-02T09:44:49;93758.69;;;19.58;32.57
65376;BME280;51976;47.332;9.404;2023-02-02T09:47:27;93770.94;;;19.60;32.88
65376;BME280;51976;47.332;9.404;2023-02-02T09:50:03;93777.53;;;19.59;32.44
65376;BME280;51976;47.332;9.404;2023-02-02T09:52:40;93779.47;;;19.59;32.63
65376;BME280;51976;47.332;9.404;2023-02-02T09:55:30;93781.56;;;19.62;32.53
65376;BME280;51976;47.332;9.404;2023-02-02T09:58:20;93793.00;;;19.64;32.40
65376;BME280;51976;47.332;9.404;2023-02-02T10:01:13;93801.22;;;19.64;32.75
65376;BME280;51976;47.332;9.404;2023-02-02T10:04:11;93793.81;;;19.65;32.53
65376;BME280;51976;47.332;9.404;2023-02-02T10:06:36;93797.66;;;19.64;32.58
65376;BME280;51976;47.332;9.404;2023-02-02T10:09:28;93801.22;;;19.64;32.69
65376;BME280;51976;47.332;9.404;2023-02-02T10:12:44;93808.28;;;19.65;32.44
65376;BME280;51976;47.332;9.404;2023-02-02T10:15:21;93804.94;;;19.68;32.41
65376;BME280;51976;47.332;9.404;2023-02-02T10:17:59;93806.06;;;19.67;32.56
65376;BME280;51976;47.332;9.404;2023-02-02T10:20:49;93808.78;;;19.67;32.69
65376;BME280;51976;47.332;9.404;2023-02-02T10:23:32;93817.00;;;19.67;32.56
65376;BME280;51976;47.332;9.404;2023-02-02T10:26:21;93811.53;;;19.67;32.76
65376;BME280;51976;47.332;9.404;2023-02-02T10:29:07;93806.06;;;19.67;32.40
65376;BME280;51976;47.332;9.404;2023-02-02T10:31:48;93806.56;;;19.69;32.59
65376;BME280;51976;47.332;9.404;2023-02-02T10:34:49;93823.28;;;19.68;32.38
65376;BME280;51976;47.332;9.404;2023-02-02T10:37:45;93815.88;;;19.68;32.49
65376;BME280;51976;47.332;9.404;2023-02-02T10:40:25;93815.06;;;19.68;32.36
65376;BME280;51976;47.332;9.404;2023-02-02T10:43:30;93813.59;;;19.70;32.46
65376;BME280;51976;47.332;9.404;2023-02-02T10:46:24;93817.16;;;19.71;32.35
65376;BME280;51976;47.332;9.404;2023-02-02T10:49:08;93816.03;;;19.72;32.46
65376;BME280;51976;47.332;9.404;2023-02-02T10:51:35;93822.63;;;19.71;32.33
65376;BME280;51976;47.332;9.404;2023-02-02T10:54:02;93821.81;;;19.70;32.00
65376;BME280;51976;47.332;9.404;2023-02-02T10:56:40;93817.50;;;19.69;32.41
65376;BME280;51976;47.332;9.404;2023-02-02T10:59:16;93830.69;;;19.67;32.28
65376;BME280;51976;47.332;9.404;2023-02-02T11:01:43;93829.22;;;19.70;32.20
65376;BME280;51976;47.332;9.404;2023-02-02T11:04:10;93832.44;;;19.72;32.43
65376;BME280;51976;47.332;9.404;2023-02-02T11:06:55;93831.94;;;19.70;32.37
65376;BME280;51976;47.332;9.404;2023-02-02T11:09:27;93824.22;;;19.72;32.33
65376;BME280;51976;47.332;9.404;2023-02-02T11:12:24;93809.91;;;19.66;32.44
65376;BME280;51976;47.332;9.404;2023-02-02T11:14:58;93815.88;;;19.68;32.14
65376;BME280;51976;47.332;9.404;2023-02-02T11:17:27;93825.22;;;19.67;32.33
65376;BME280;51976;47.332;9.404;2023-02-02T11:19:52;93809.91;;;19.66;32.44
65376;BME280;51976;47.332;9.404;2023-02-02T11:22:29;93810.88;;;19.70;32.36
65376;BME280;51976;47.332;9.404;2023-02-02T11:24:56;93809.44;;;19.73;32.38
65376;BME280;51976;47.332;9.404;2023-02-02T11:27:30;93809.59;;;19.68;32.30
65376;BME280;51976;47.332;9.404;2023-02-02T11:29:58;93799.78;;;19.67;32.16
65376;BME280;51976;47.332;9.404;2023-02-02T11:32:30;93803.00;;;19.69;32.16
65376;BME280;51976;47.332;9.404;2023-02-02T11:35:12;93806.88;;;19.68;32.10
65376;BME280;51976;47.332;9.404;2023-02-02T11:37:51;93798.66;;;19.68;32.15
65376;BME280;51976;47.332;9.404;2023-02-02T11:40:34;93795.59;;;19.69;32.35
65376;BME280;51976;47.332;9.404;2023-02-02T11:43:04;93795.91;;;19.68;32.13
65376;BME280;51976;47.332;9.404;2023-02-02T11:45:38;93790.44;;;19.68;32.00
65376;BME280;51976;47.332;9.404;2023-02-02T11:48:22;93787.41;;;19.69;32.22
65376;BME280;51976;47.332;9.404;2023-02-02T11:50:53;93785.44;;;19.70;32.25
65376;BME280;51976;47.332;9.404;2023-02-02T11:53:26;93784.19;;;19.67;32.27
65376;BME280;51976;47.332;9.404;2023-02-02T11:55:52;93787.41;;;19.69;32.08
65376;BME280;51976;47.332;9.404;2023-02-02T11:58:23;93788.19;;;19.70;32.23
65376;BME280;51976;47.332;9.404;2023-02-02T12:00:54;93785.63;;;19.73;32.21
65376;BME280;51976;47.332;9.404;2023-02-02T12:03:23;93786.66;;;20.69;31.79
65376;BME280;51976;47.332;9.404;2023-02-02T12:05:48;93783.16;;;19.94;31.69
65376;BME280;51976;47.332;9.404;2023-02-02T12:08:14;93781.31;;;19.81;32.25
65376;BME280;51976;47.332;9.404;2023-02-02T12:10:55;93798.66;;;19.76;31.94
65376;BME280;51976;47.332;9.404;2023-02-02T12:13:43;93790.97;;;19.78;32.14
65376;BME280;51976;47.332;9.404;2023-02-02T12:16:36;93780.50;;;19.80;32.27
65376;BME280;51976;47.332;9.404;2023-02-02T12:19:46;93791.75;;;19.79;32.33
65376;BME280;51976;47.332;9.404;2023-02-02T12:22:16;93788.03;;;19.75;32.07
65376;BME280;51976;47.332;9.404;2023-02-02T12:24:59;93772.94;;;19.77;32.25
65376;BME280;51976;47.332;9.404;2023-02-02T12:27:41;93772.44;;;19.75;32.18
65376;BME280;51976;47.332;9.404;2023-02-02T12:30:30;93774.84;;;19.77;32.02
65376;BME280;51976;47.332;9.404;2023-02-02T12:33:22;93757.94;;;19.75;32.22
65376;BME280;51976;47.332;9.404;2023-02-02T12:39:08;93742.47;;;19.70;32.09
65376;BME280;51976;47.332;9.404;2023-02-02T12:42:24;93738.00;;;19.66;31.90
65376;BME280;51976;47.332;9.404;2023-02-02T12:44:59;93752.16;;;19.68;32.52
65376;BME280;51976;47.332;9.404;2023-02-02T12:48:04;93753.28;;;19.75;32.17
65376;BME280;51976;47.332;9.404;2023-02-02T12:50:56;93759.56;;;19.76;32.29
65376;BME280;51976;47.332;9.404;2023-02-02T12:54:00;93764.22;;;19.75;32.43
65376;BME280;51976;47.332;9.404;2023-02-02T12:56:44;93762.78;;;19.78;32.59
65376;BME280;51976;47.332;9.404;2023-02-02T12:59:26;93760.38;;;19.76;32.66
65376;BME280;51976;47.332;9.404;2023-02-02T13:02:03;93756.50;;;19.77;32.97
65376;BME280;51976;47.332;9.404;2023-02-02T13:04:59;93761.34;;;19.80;33.00
65376;BME280;51976;47.332;9.404;2023-02-02T13:07:40;93759.75;;;19.79;33.15
65376;BME280;51976;47.332;9.404;2023-02-02T13:10:16;93768.44;;;19.81;33.08
65376;BME280;51976;47.332;9.404;2023-02-02T13:12:55;93761.53;;;19.84;33.91
65376;BME280;51976;47.332;9.404;2023-02-02T13:15:31;93763.16;;;19.85;33.90
65376;BME280;51976;47.332;9.404;2023-02-02T13:18:01;93787.44;;;19.86;34.03
65376;BME280;51976;47.332;9.404;2023-02-02T13:20:40;93773.78;;;19.86;34.22
65376;BME280;51976;47.332;9.404;2023-02-02T13:23:17;93785.53;;;19.87;34.48
65376;BME280;51976;47.332;9.404;2023-02-02T13:25:47;93779.75;;;19.88;34.51
65376;BME280;51976;47.332;9.404;2023-02-02T13:28:29;93780.84;;;19.87;34.66
65376;BME280;51976;47.332;9.404;2023-02-02T13:30:58;93773.94;;;19.90;34.63